METAR Data
IDs: Format: Raw Decoded Include TAF

Data at: 1010 UTC 26 May 2019

KRZL 260955Z AUTO 00000KT 10SM DZ OVC120 18/16 A3001 RMK AO2 P0001